sensor_id;sensor_type;location;lat;lon;timestamp;P1;durP1;ratioP1;P2;durP2;ratioP2
18875;SDS011;9570;50.854;13.778;2022-11-22T00:00:58;11.23;;;7.97;;
18875;SDS011;9570;50.854;13.778;2022-11-22T00:03:23;12.50;;;7.90;;
18875;SDS011;9570;50.854;13.778;2022-11-22T00:05:49;10.53;;;7.50;;
18875;SDS011;9570;50.854;13.778;2022-11-22T00:08:14;11.27;;;6.57;;
18875;SDS011;9570;50.854;13.778;2022-11-22T00:10:40;10.40;;;6.37;;
18875;SDS011;9570;50.854;13.778;2022-11-22T00:13:06;11.23;;;6.83;;
18875;SDS011;9570;50.854;13.778;2022-11-22T00:15:31;11.93;;;6.80;;
18875;SDS011;9570;50.854;13.778;2022-11-22T00:17:57;7.87;;;6.00;;
18875;SDS011;9570;50.854;13.778;2022-11-22T00:20:22;8.27;;;5.87;;
18875;SDS011;9570;50.854;13.778;2022-11-22T00:22:48;8.60;;;5.90;;
18875;SDS011;9570;50.854;13.778;2022-11-22T00:25:13;8.47;;;5.93;;
18875;SDS011;9570;50.854;13.778;2022-11-22T00:27:39;7.00;;;5.47;;
18875;SDS011;9570;50.854;13.778;2022-11-22T00:30:05;8.07;;;5.17;;
18875;SDS011;9570;50.854;13.778;2022-11-22T00:32:32;6.30;;;5.18;;
18875;SDS011;9570;50.854;13.778;2022-11-22T00:34:57;7.35;;;5.35;;
18875;SDS011;9570;50.854;13.778;2022-11-22T00:37:23;7.93;;;5.13;;
18875;SDS011;9570;50.854;13.778;2022-11-22T00:39:48;7.30;;;4.80;;
18875;SDS011;9570;50.854;13.778;2022-11-22T00:42:14;6.67;;;4.63;;
18875;SDS011;9570;50.854;13.778;2022-11-22T00:44:40;6.53;;;4.30;;
18875;SDS011;9570;50.854;13.778;2022-11-22T00:47:05;8.03;;;4.20;;
18875;SDS011;9570;50.854;13.778;2022-11-22T00:49:31;5.13;;;3.90;;
18875;SDS011;9570;50.854;13.778;2022-11-22T00:51:56;6.37;;;4.33;;
18875;SDS011;9570;50.854;13.778;2022-11-22T00:54:22;7.63;;;5.20;;
18875;SDS011;9570;50.854;13.778;2022-11-22T00:56:47;7.03;;;4.60;;
18875;SDS011;9570;50.854;13.778;2022-11-22T00:59:13;7.77;;;5.10;;
18875;SDS011;9570;50.854;13.778;2022-11-22T01:01:38;6.40;;;4.83;;
18875;SDS011;9570;50.854;13.778;2022-11-22T01:04:04;6.17;;;4.60;;
18875;SDS011;9570;50.854;13.778;2022-11-22T01:06:29;6.97;;;4.60;;
18875;SDS011;9570;50.854;13.778;2022-11-22T01:08:55;5.13;;;4.50;;
18875;SDS011;9570;50.854;13.778;2022-11-22T01:11:20;7.47;;;5.13;;
18875;SDS011;9570;50.854;13.778;2022-11-22T01:13:46;9.07;;;4.70;;
18875;SDS011;9570;50.854;13.778;2022-11-22T01:16:12;9.20;;;5.40;;
18875;SDS011;9570;50.854;13.778;2022-11-22T01:18:38;9.60;;;5.28;;
18875;SDS011;9570;50.854;13.778;2022-11-22T01:21:04;8.35;;;5.18;;
18875;SDS011;9570;50.854;13.778;2022-11-22T01:23:30;8.30;;;5.97;;
18875;SDS011;9570;50.854;13.778;2022-11-22T01:25:56;9.35;;;5.03;;
18875;SDS011;9570;50.854;13.778;2022-11-22T01:28:22;9.30;;;5.50;;
18875;SDS011;9570;50.854;13.778;2022-11-22T01:30:51;7.87;;;5.03;;
18875;SDS011;9570;50.854;13.778;2022-11-22T01:33:17;8.15;;;5.18;;
18875;SDS011;9570;50.854;13.778;2022-11-22T01:35:43;9.00;;;5.33;;
18875;SDS011;9570;50.854;13.778;2022-11-22T01:38:08;7.77;;;4.70;;
18875;SDS011;9570;50.854;13.778;2022-11-22T01:40:34;7.17;;;4.77;;
18875;SDS011;9570;50.854;13.778;2022-11-22T01:43:00;5.73;;;4.00;;
18875;SDS011;9570;50.854;13.778;2022-11-22T01:50:20;5.23;;;3.53;;
18875;SDS011;9570;50.854;13.778;2022-11-22T01:52:46;4.03;;;3.27;;
18875;SDS011;9570;50.854;13.778;2022-11-22T01:55:11;4.57;;;3.27;;
18875;SDS011;9570;50.854;13.778;2022-11-22T01:57:38;4.15;;;3.20;;
18875;SDS011;9570;50.854;13.778;2022-11-22T02:00:09;4.13;;;3.20;;
18875;SDS011;9570;50.854;13.778;2022-11-22T02:02:37;3.92;;;3.20;;
18875;SDS011;9570;50.854;13.778;2022-11-22T02:05:04;4.80;;;3.27;;
18875;SDS011;9570;50.854;13.778;2022-11-22T02:10:21;5.87;;;3.40;;
18875;SDS011;9570;50.854;13.778;2022-11-22T02:12:49;6.43;;;4.47;;
18875;SDS011;9570;50.854;13.778;2022-11-22T02:15:17;7.00;;;4.47;;
18875;SDS011;9570;50.854;13.778;2022-11-22T02:17:42;8.63;;;5.50;;
18875;SDS011;9570;50.854;13.778;2022-11-22T02:20:08;6.60;;;5.37;;
18875;SDS011;9570;50.854;13.778;2022-11-22T02:27:56;9.10;;;6.65;;
18875;SDS011;9570;50.854;13.778;2022-11-22T02:30:21;9.93;;;6.93;;
18875;SDS011;9570;50.854;13.778;2022-11-22T02:32:47;11.27;;;6.60;;
18875;SDS011;9570;50.854;13.778;2022-11-22T02:35:20;10.33;;;6.20;;
18875;SDS011;9570;50.854;13.778;2022-11-22T02:37:48;10.00;;;7.03;;
18875;SDS011;9570;50.854;13.778;2022-11-22T02:40:16;8.57;;;6.03;;
18875;SDS011;9570;50.854;13.778;2022-11-22T02:42:43;8.35;;;5.53;;
18875;SDS011;9570;50.854;13.778;2022-11-22T02:45:14;9.43;;;6.43;;
18875;SDS011;9570;50.854;13.778;2022-11-22T02:47:39;8.17;;;5.87;;
18875;SDS011;9570;50.854;13.778;2022-11-22T02:50:05;9.20;;;6.03;;
18875;SDS011;9570;50.854;13.778;2022-11-22T02:52:31;6.70;;;5.20;;
18875;SDS011;9570;50.854;13.778;2022-11-22T02:54:56;8.93;;;5.60;;
18875;SDS011;9570;50.854;13.778;2022-11-22T02:57:22;8.67;;;5.17;;
18875;SDS011;9570;50.854;13.778;2022-11-22T02:59:47;8.80;;;5.60;;
18875;SDS011;9570;50.854;13.778;2022-11-22T03:02:13;6.93;;;5.07;;
18875;SDS011;9570;50.854;13.778;2022-11-22T03:04:38;6.83;;;4.67;;
18875;SDS011;9570;50.854;13.778;2022-11-22T03:07:04;7.83;;;5.30;;
18875;SDS011;9570;50.854;13.778;2022-11-22T03:09:29;9.53;;;7.00;;
18875;SDS011;9570;50.854;13.778;2022-11-22T03:11:56;7.43;;;4.57;;
18875;SDS011;9570;50.854;13.778;2022-11-22T03:14:21;7.30;;;4.93;;
18875;SDS011;9570;50.854;13.778;2022-11-22T03:16:47;5.83;;;3.87;;
18875;SDS011;9570;50.854;13.778;2022-11-22T03:19:13;6.77;;;4.40;;
18875;SDS011;9570;50.854;13.778;2022-11-22T03:21:39;7.03;;;4.17;;
18875;SDS011;9570;50.854;13.778;2022-11-22T03:24:05;6.20;;;3.95;;
18875;SDS011;9570;50.854;13.778;2022-11-22T03:26:32;5.88;;;4.00;;
18875;SDS011;9570;50.854;13.778;2022-11-22T03:28:58;7.40;;;3.90;;
18875;SDS011;9570;50.854;13.778;2022-11-22T03:31:24;7.67;;;4.20;;
18875;SDS011;9570;50.854;13.778;2022-11-22T03:33:50;4.87;;;3.63;;
18875;SDS011;9570;50.854;13.778;2022-11-22T03:36:15;6.30;;;4.33;;
18875;SDS011;9570;50.854;13.778;2022-11-22T03:38:41;8.77;;;4.43;;
18875;SDS011;9570;50.854;13.778;2022-11-22T03:41:06;5.47;;;4.20;;
18875;SDS011;9570;50.854;13.778;2022-11-22T03:43:32;7.50;;;4.60;;
18875;SDS011;9570;50.854;13.778;2022-11-22T03:45:57;7.77;;;5.10;;
18875;SDS011;9570;50.854;13.778;2022-11-22T03:48:23;6.73;;;4.83;;
18875;SDS011;9570;50.854;13.778;2022-11-22T03:50:48;6.77;;;4.70;;
18875;SDS011;9570;50.854;13.778;2022-11-22T03:53:14;8.73;;;5.83;;
18875;SDS011;9570;50.854;13.778;2022-11-22T03:55:40;9.47;;;5.33;;
18875;SDS011;9570;50.854;13.778;2022-11-22T03:58:05;8.00;;;5.20;;
18875;SDS011;9570;50.854;13.778;2022-11-22T04:00:31;7.93;;;5.43;;
18875;SDS011;9570;50.854;13.778;2022-11-22T04:02:57;7.13;;;5.10;;
18875;SDS011;9570;50.854;13.778;2022-11-22T04:05:23;7.47;;;5.40;;
18875;SDS011;9570;50.854;13.778;2022-11-22T04:07:49;8.50;;;5.70;;
18875;SDS011;9570;50.854;13.778;2022-11-22T04:10:20;10.25;;;5.82;;
18875;SDS011;9570;50.854;13.778;2022-11-22T04:12:48;8.70;;;5.80;;
18875;SDS011;9570;50.854;13.778;2022-11-22T04:15:14;7.50;;;5.57;;
18875;SDS011;9570;50.854;13.778;2022-11-22T04:17:40;10.17;;;7.20;;
18875;SDS011;9570;50.854;13.778;2022-11-22T04:20:14;10.07;;;7.23;;
18875;SDS011;9570;50.854;13.778;2022-11-22T04:22:59;9.38;;;6.97;;
18875;SDS011;9570;50.854;13.778;2022-11-22T04:25:27;10.45;;;6.88;;
18875;SDS011;9570;50.854;13.778;2022-11-22T04:27:53;11.90;;;7.20;;
18875;SDS011;9570;50.854;13.778;2022-11-22T04:30:19;11.43;;;7.60;;
18875;SDS011;9570;50.854;13.778;2022-11-22T04:32:45;12.67;;;8.17;;
18875;SDS011;9570;50.854;13.778;2022-11-22T04:35:14;12.47;;;7.77;;
18875;SDS011;9570;50.854;13.778;2022-11-22T04:37:42;12.80;;;8.50;;
18875;SDS011;9570;50.854;13.778;2022-11-22T04:40:13;12.50;;;7.97;;
18875;SDS011;9570;50.854;13.778;2022-11-22T04:42:39;11.97;;;8.50;;
18875;SDS011;9570;50.854;13.778;2022-11-22T04:45:23;13.50;;;8.25;;
18875;SDS011;9570;50.854;13.778;2022-11-22T04:47:49;10.07;;;7.87;;
18875;SDS011;9570;50.854;13.778;2022-11-22T04:50:23;11.95;;;8.38;;
18875;SDS011;9570;50.854;13.778;2022-11-22T04:53:07;11.75;;;8.73;;
18875;SDS011;9570;50.854;13.778;2022-11-22T04:55:33;11.37;;;8.00;;
18875;SDS011;9570;50.854;13.778;2022-11-22T04:57:58;12.13;;;7.90;;
18875;SDS011;9570;50.854;13.778;2022-11-22T05:00:24;12.60;;;8.00;;
18875;SDS011;9570;50.854;13.778;2022-11-22T05:02:51;12.43;;;8.68;;
18875;SDS011;9570;50.854;13.778;2022-11-22T05:05:17;13.87;;;7.23;;
18875;SDS011;9570;50.854;13.778;2022-11-22T05:07:42;12.23;;;8.47;;
18875;SDS011;9570;50.854;13.778;2022-11-22T05:10:08;10.53;;;8.37;;
18875;SDS011;9570;50.854;13.778;2022-11-22T05:12:34;10.97;;;7.77;;
18875;SDS011;9570;50.854;13.778;2022-11-22T05:14:59;12.83;;;8.23;;
18875;SDS011;9570;50.854;13.778;2022-11-22T05:17:25;11.57;;;8.07;;
18875;SDS011;9570;50.854;13.778;2022-11-22T05:19:50;14.50;;;8.03;;
18875;SDS011;9570;50.854;13.778;2022-11-22T05:22:16;13.17;;;8.27;;
18875;SDS011;9570;50.854;13.778;2022-11-22T05:25:01;11.20;;;8.60;;
18875;SDS011;9570;50.854;13.778;2022-11-22T05:27:27;11.33;;;8.30;;
18875;SDS011;9570;50.854;13.778;2022-11-22T05:29:53;11.97;;;8.03;;
18875;SDS011;9570;50.854;13.778;2022-11-22T05:32:18;12.47;;;8.90;;
18875;SDS011;9570;50.854;13.778;2022-11-22T05:34:44;13.40;;;9.53;;
18875;SDS011;9570;50.854;13.778;2022-11-22T05:37:09;13.03;;;9.33;;
18875;SDS011;9570;50.854;13.778;2022-11-22T05:39:34;15.33;;;10.27;;
18875;SDS011;9570;50.854;13.778;2022-11-22T05:42:00;15.70;;;10.47;;
18875;SDS011;9570;50.854;13.778;2022-11-22T05:44:25;16.60;;;10.43;;
18875;SDS011;9570;50.854;13.778;2022-11-22T05:46:51;16.17;;;11.10;;
18875;SDS011;9570;50.854;13.778;2022-11-22T05:49:16;18.20;;;10.87;;
18875;SDS011;9570;50.854;13.778;2022-11-22T05:51:42;15.60;;;11.00;;
18875;SDS011;9570;50.854;13.778;2022-11-22T05:54:07;15.43;;;11.30;;
18875;SDS011;9570;50.854;13.778;2022-11-22T05:56:33;16.03;;;10.33;;
18875;SDS011;9570;50.854;13.778;2022-11-22T05:58:58;17.03;;;10.97;;
18875;SDS011;9570;50.854;13.778;2022-11-22T06:01:24;15.23;;;10.63;;
18875;SDS011;9570;50.854;13.778;2022-11-22T06:03:49;16.33;;;10.10;;
18875;SDS011;9570;50.854;13.778;2022-11-22T06:06:16;12.17;;;9.73;;
18875;SDS011;9570;50.854;13.778;2022-11-22T06:08:42;13.50;;;9.90;;
18875;SDS011;9570;50.854;13.778;2022-11-22T06:11:16;12.85;;;9.23;;
18875;SDS011;9570;50.854;13.778;2022-11-22T06:13:42;13.05;;;9.23;;
18875;SDS011;9570;50.854;13.778;2022-11-22T06:16:09;13.77;;;9.60;;
18875;SDS011;9570;50.854;13.778;2022-11-22T06:18:35;13.50;;;9.13;;
18875;SDS011;9570;50.854;13.778;2022-11-22T06:21:02;13.93;;;10.20;;
18875;SDS011;9570;50.854;13.778;2022-11-22T06:23:29;14.95;;;10.43;;
18875;SDS011;9570;50.854;13.778;2022-11-22T06:25:58;14.67;;;10.03;;
18875;SDS011;9570;50.854;13.778;2022-11-22T06:28:25;14.25;;;10.85;;
18875;SDS011;9570;50.854;13.778;2022-11-22T06:30:52;13.23;;;10.10;;
18875;SDS011;9570;50.854;13.778;2022-11-22T06:33:18;14.60;;;9.90;;
18875;SDS011;9570;50.854;13.778;2022-11-22T06:35:43;15.87;;;10.23;;
18875;SDS011;9570;50.854;13.778;2022-11-22T06:38:09;14.83;;;10.10;;
18875;SDS011;9570;50.854;13.778;2022-11-22T06:40:34;15.20;;;10.73;;
18875;SDS011;9570;50.854;13.778;2022-11-22T06:43:00;13.80;;;10.27;;
18875;SDS011;9570;50.854;13.778;2022-11-22T06:45:26;14.83;;;10.27;;
18875;SDS011;9570;50.854;13.778;2022-11-22T06:47:51;15.20;;;10.73;;
18875;SDS011;9570;50.854;13.778;2022-11-22T06:50:16;15.10;;;10.93;;
18875;SDS011;9570;50.854;13.778;2022-11-22T06:52:42;16.33;;;11.20;;
18875;SDS011;9570;50.854;13.778;2022-11-22T06:55:07;16.07;;;10.60;;
18875;SDS011;9570;50.854;13.778;2022-11-22T06:57:33;14.97;;;10.23;;
18875;SDS011;9570;50.854;13.778;2022-11-22T06:59:58;11.83;;;9.73;;
18875;SDS011;9570;50.854;13.778;2022-11-22T07:02:24;12.87;;;9.90;;
18875;SDS011;9570;50.854;13.778;2022-11-22T07:04:49;13.53;;;9.80;;
18875;SDS011;9570;50.854;13.778;2022-11-22T07:07:15;13.57;;;9.97;;
18875;SDS011;9570;50.854;13.778;2022-11-22T07:09:40;13.07;;;9.53;;
18875;SDS011;9570;50.854;13.778;2022-11-22T07:12:06;13.23;;;9.00;;
18875;SDS011;9570;50.854;13.778;2022-11-22T07:14:32;14.33;;;9.70;;
18875;SDS011;9570;50.854;13.778;2022-11-22T07:16:57;11.40;;;8.90;;
18875;SDS011;9570;50.854;13.778;2022-11-22T07:19:22;14.70;;;10.17;;
18875;SDS011;9570;50.854;13.778;2022-11-22T07:21:48;12.97;;;9.30;;
18875;SDS011;9570;50.854;13.778;2022-11-22T07:24:14;14.47;;;9.77;;
18875;SDS011;9570;50.854;13.778;2022-11-22T07:26:40;13.33;;;9.03;;
18875;SDS011;9570;50.854;13.778;2022-11-22T07:29:05;12.53;;;9.10;;
18875;SDS011;9570;50.854;13.778;2022-11-22T07:31:31;13.67;;;9.63;;
18875;SDS011;9570;50.854;13.778;2022-11-22T07:33:57;11.80;;;8.73;;
18875;SDS011;9570;50.854;13.778;2022-11-22T07:36:22;12.97;;;9.57;;
18875;SDS011;9570;50.854;13.778;2022-11-22T07:38:49;16.20;;;10.93;;
18875;SDS011;9570;50.854;13.778;2022-11-22T07:41:15;14.27;;;10.43;;
18875;SDS011;9570;50.854;13.778;2022-11-22T07:43:42;14.63;;;10.80;;
18875;SDS011;9570;50.854;13.778;2022-11-22T07:46:11;15.77;;;11.20;;
18875;SDS011;9570;50.854;13.778;2022-11-22T07:48:46;16.40;;;11.87;;
18875;SDS011;9570;50.854;13.778;2022-11-22T07:51:13;18.10;;;12.70;;
18875;SDS011;9570;50.854;13.778;2022-11-22T07:53:39;20.53;;;13.20;;
18875;SDS011;9570;50.854;13.778;2022-11-22T07:56:05;18.73;;;13.30;;
18875;SDS011;9570;50.854;13.778;2022-11-22T07:58:32;17.03;;;12.57;;
18875;SDS011;9570;50.854;13.778;2022-11-22T08:01:03;18.33;;;12.43;;
18875;SDS011;9570;50.854;13.778;2022-11-22T08:03:33;20.00;;;12.97;;
18875;SDS011;9570;50.854;13.778;2022-11-22T08:06:00;17.70;;;12.87;;
18875;SDS011;9570;50.854;13.778;2022-11-22T08:08:26;17.85;;;12.45;;
18875;SDS011;9570;50.854;13.778;2022-11-22T08:10:52;19.43;;;12.23;;
18875;SDS011;9570;50.854;13.778;2022-11-22T08:13:17;19.67;;;12.50;;
18875;SDS011;9570;50.854;13.778;2022-11-22T08:15:43;18.53;;;12.77;;
18875;SDS011;9570;50.854;13.778;2022-11-22T08:18:09;18.50;;;12.27;;
18875;SDS011;9570;50.854;13.778;2022-11-22T08:20:35;17.73;;;12.47;;
18875;SDS011;9570;50.854;13.778;2022-11-22T08:23:00;18.10;;;12.60;;
18875;SDS011;9570;50.854;13.778;2022-11-22T08:25:26;17.17;;;11.77;;
18875;SDS011;9570;50.854;13.778;2022-11-22T08:27:51;15.17;;;11.20;;
18875;SDS011;9570;50.854;13.778;2022-11-22T08:30:17;16.87;;;11.60;;
18875;SDS011;9570;50.854;13.778;2022-11-22T08:32:42;19.83;;;11.07;;
18875;SDS011;9570;50.854;13.778;2022-11-22T08:35:08;17.53;;;11.73;;
18875;SDS011;9570;50.854;13.778;2022-11-22T08:37:33;15.23;;;10.57;;
18875;SDS011;9570;50.854;13.778;2022-11-22T08:39:59;15.87;;;11.67;;
18875;SDS011;9570;50.854;13.778;2022-11-22T08:42:24;16.37;;;11.00;;
18875;SDS011;9570;50.854;13.778;2022-11-22T08:44:50;15.77;;;11.17;;
18875;SDS011;9570;50.854;13.778;2022-11-22T08:47:15;13.23;;;10.13;;
18875;SDS011;9570;50.854;13.778;2022-11-22T08:49:41;14.83;;;10.50;;
18875;SDS011;9570;50.854;13.778;2022-11-22T08:52:07;14.90;;;10.47;;
18875;SDS011;9570;50.854;13.778;2022-11-22T08:54:32;15.33;;;10.97;;
18875;SDS011;9570;50.854;13.778;2022-11-22T08:56:58;16.00;;;11.30;;
18875;SDS011;9570;50.854;13.778;2022-11-22T08:59:23;15.83;;;11.43;;
18875;SDS011;9570;50.854;13.778;2022-11-22T09:01:49;13.90;;;10.93;;
18875;SDS011;9570;50.854;13.778;2022-11-22T09:04:14;12.00;;;9.87;;
18875;SDS011;9570;50.854;13.778;2022-11-22T09:06:40;15.33;;;11.40;;
18875;SDS011;9570;50.854;13.778;2022-11-22T09:09:05;14.73;;;11.37;;
18875;SDS011;9570;50.854;13.778;2022-11-22T09:11:31;15.40;;;11.40;;
18875;SDS011;9570;50.854;13.778;2022-11-22T09:13:58;15.47;;;11.50;;
18875;SDS011;9570;50.854;13.778;2022-11-22T09:16:25;17.37;;;11.27;;
18875;SDS011;9570;50.854;13.778;2022-11-22T09:18:52;16.07;;;11.13;;
18875;SDS011;9570;50.854;13.778;2022-11-22T09:21:18;14.43;;;10.73;;
18875;SDS011;9570;50.854;13.778;2022-11-22T09:23:44;15.83;;;11.20;;
18875;SDS011;9570;50.854;13.778;2022-11-22T09:26:13;15.70;;;11.30;;
18875;SDS011;9570;50.854;13.778;2022-11-22T09:28:40;15.43;;;11.17;;
18875;SDS011;9570;50.854;13.778;2022-11-22T09:31:10;15.27;;;10.53;;
18875;SDS011;9570;50.854;13.778;2022-11-22T09:33:41;14.53;;;9.57;;
18875;SDS011;9570;50.854;13.778;2022-11-22T09:36:12;14.77;;;10.83;;
18875;SDS011;9570;50.854;13.778;2022-11-22T09:38:39;12.00;;;9.20;;
18875;SDS011;9570;50.854;13.778;2022-11-22T09:49:06;12.90;;;9.20;;
18875;SDS011;9570;50.854;13.778;2022-11-22T09:51:53;13.20;;;9.00;;
18875;SDS011;9570;50.854;13.778;2022-11-22T09:54:42;12.63;;;8.63;;
18875;SDS011;9570;50.854;13.778;2022-11-22T09:57:14;13.23;;;9.87;;
18875;SDS011;9570;50.854;13.778;2022-11-22T09:59:49;13.43;;;9.73;;
18875;SDS011;9570;50.854;13.778;2022-11-22T10:02:31;13.23;;;9.87;;
18875;SDS011;9570;50.854;13.778;2022-11-22T10:05:02;12.77;;;9.10;;
18875;SDS011;9570;50.854;13.778;2022-11-22T10:07:38;14.03;;;10.10;;
18875;SDS011;9570;50.854;13.778;2022-11-22T10:10:07;12.50;;;9.83;;
18875;SDS011;9570;50.854;13.778;2022-11-22T10:12:47;14.03;;;10.40;;
18875;SDS011;9570;50.854;13.778;2022-11-22T10:15:31;14.37;;;9.73;;
18875;SDS011;9570;50.854;13.778;2022-11-22T10:20:42;14.73;;;10.67;;
18875;SDS011;9570;50.854;13.778;2022-11-22T10:23:21;12.90;;;10.07;;
18875;SDS011;9570;50.854;13.778;2022-11-22T10:25:58;13.77;;;10.20;;
18875;SDS011;9570;50.854;13.778;2022-11-22T10:28:35;14.43;;;10.63;;
18875;SDS011;9570;50.854;13.778;2022-11-22T10:31:21;14.97;;;10.83;;
18875;SDS011;9570;50.854;13.778;2022-11-22T10:34:10;15.10;;;11.13;;
18875;SDS011;9570;50.854;13.778;2022-11-22T10:53:21;14.50;;;10.97;;
18875;SDS011;9570;50.854;13.778;2022-11-22T10:59:04;14.13;;;10.30;;
18875;SDS011;9570;50.854;13.778;2022-11-22T11:04:34;15.43;;;11.30;;
18875;SDS011;9570;50.854;13.778;2022-11-22T11:07:02;16.27;;;11.93;;
18875;SDS011;9570;50.854;13.778;2022-11-22T11:09:37;19.03;;;12.37;;
18875;SDS011;9570;50.854;13.778;2022-11-22T11:12:13;17.40;;;12.13;;
18875;SDS011;9570;50.854;13.778;2022-11-22T11:14:45;20.40;;;13.63;;
18875;SDS011;9570;50.854;13.778;2022-11-22T11:17:20;17.70;;;12.83;;
18875;SDS011;9570;50.854;13.778;2022-11-22T11:19:51;16.27;;;12.07;;
18875;SDS011;9570;50.854;13.778;2022-11-22T11:22:20;15.73;;;11.43;;
18875;SDS011;9570;50.854;13.778;2022-11-22T11:24:47;15.57;;;11.03;;
18875;SDS011;9570;50.854;13.778;2022-11-22T11:27:13;14.77;;;11.30;;
18875;SDS011;9570;50.854;13.778;2022-11-22T11:29:44;16.73;;;10.87;;
18875;SDS011;9570;50.854;13.778;2022-11-22T11:32:13;15.47;;;11.27;;
18875;SDS011;9570;50.854;13.778;2022-11-22T11:34:54;13.30;;;10.77;;
18875;SDS011;9570;50.854;13.778;2022-11-22T11:37:36;14.43;;;10.50;;
18875;SDS011;9570;50.854;13.778;2022-11-22T11:40:03;12.73;;;10.00;;
18875;SDS011;9570;50.854;13.778;2022-11-22T11:42:31;14.60;;;10.57;;
18875;SDS011;9570;50.854;13.778;2022-11-22T11:47:52;13.77;;;9.97;;
18875;SDS011;9570;50.854;13.778;2022-11-22T11:50:19;13.80;;;10.17;;
18875;SDS011;9570;50.854;13.778;2022-11-22T11:52:50;14.13;;;10.17;;
18875;SDS011;9570;50.854;13.778;2022-11-22T11:55:16;15.47;;;10.50;;
18875;SDS011;9570;50.854;13.778;2022-11-22T11:57:42;12.50;;;9.77;;
18875;SDS011;9570;50.854;13.778;2022-11-22T12:00:15;15.03;;;10.77;;
18875;SDS011;9570;50.854;13.778;2022-11-22T12:02:45;13.07;;;9.77;;
18875;SDS011;9570;50.854;13.778;2022-11-22T12:07:38;13.17;;;10.00;;
18875;SDS011;9570;50.854;13.778;2022-11-22T12:12:59;13.70;;;9.87;;
18875;SDS011;9570;50.854;13.778;2022-11-22T12:15:55;13.03;;;9.30;;
18875;SDS011;9570;50.854;13.778;2022-11-22T12:18:40;15.27;;;10.30;;
18875;SDS011;9570;50.854;13.778;2022-11-22T12:26:47;11.50;;;8.73;;
18875;SDS011;9570;50.854;13.778;2022-11-22T12:29:13;12.17;;;8.93;;
18875;SDS011;9570;50.854;13.778;2022-11-22T12:31:44;12.67;;;9.10;;
18875;SDS011;9570;50.854;13.778;2022-11-22T12:34:23;12.70;;;9.27;;
18875;SDS011;9570;50.854;13.778;2022-11-22T12:37:16;12.40;;;8.77;;
18875;SDS011;9570;50.854;13.778;2022-11-22T12:39:48;12.30;;;8.87;;
18875;SDS011;9570;50.854;13.778;2022-11-22T12:45:15;12.23;;;8.73;;
18875;SDS011;9570;50.854;13.778;2022-11-22T12:47:44;12.40;;;8.87;;
18875;SDS011;9570;50.854;13.778;2022-11-22T12:50:15;12.10;;;8.83;;
18875;SDS011;9570;50.854;13.778;2022-11-22T12:53:01;10.23;;;7.57;;
18875;SDS011;9570;50.854;13.778;2022-11-22T12:55:55;12.77;;;8.57;;
18875;SDS011;9570;50.854;13.778;2022-11-22T13:01:12;14.47;;;10.07;;
18875;SDS011;9570;50.854;13.778;2022-11-22T13:03:52;12.00;;;8.90;;
18875;SDS011;9570;50.854;13.778;2022-11-22T13:06:23;12.37;;;8.87;;
18875;SDS011;9570;50.854;13.778;2022-11-22T13:11:38;14.77;;;8.60;;
18875;SDS011;9570;50.854;13.778;2022-11-22T13:14:17;12.00;;;8.70;;
18875;SDS011;9570;50.854;13.778;2022-11-22T13:16:48;11.90;;;8.67;;
18875;SDS011;9570;50.854;13.778;2022-11-22T13:19:15;11.80;;;8.73;;
18875;SDS011;9570;50.854;13.778;2022-11-22T13:21:58;12.17;;;8.63;;
18875;SDS011;9570;50.854;13.778;2022-11-22T13:27:47;12.20;;;8.73;;
18875;SDS011;9570;50.854;13.778;2022-11-22T13:30:24;14.23;;;9.87;;
18875;SDS011;9570;50.854;13.778;2022-11-22T13:32:58;12.67;;;9.10;;
18875;SDS011;9570;50.854;13.778;2022-11-22T13:37:57;12.13;;;8.87;;
18875;SDS011;9570;50.854;13.778;2022-11-22T13:40:28;13.57;;;9.60;;
18875;SDS011;9570;50.854;13.778;2022-11-22T13:45:52;12.63;;;9.30;;
18875;SDS011;9570;50.854;13.778;2022-11-22T13:51:04;14.63;;;9.63;;
18875;SDS011;9570;50.854;13.778;2022-11-22T13:53:36;12.80;;;9.23;;
18875;SDS011;9570;50.854;13.778;2022-11-22T14:01:07;14.07;;;10.00;;
18875;SDS011;9570;50.854;13.778;2022-11-22T14:03:53;15.93;;;11.00;;
18875;SDS011;9570;50.854;13.778;2022-11-22T14:06:43;14.57;;;10.27;;
18875;SDS011;9570;50.854;13.778;2022-11-22T14:12:03;16.80;;;11.20;;
18875;SDS011;9570;50.854;13.778;2022-11-22T14:31:19;15.43;;;10.40;;
18875;SDS011;9570;50.854;13.778;2022-11-22T14:34:15;16.40;;;11.03;;
18875;SDS011;9570;50.854;13.778;2022-11-22T14:45:02;16.37;;;9.80;;
18875;SDS011;9570;50.854;13.778;2022-11-22T14:47:29;12.47;;;9.00;;
18875;SDS011;9570;50.854;13.778;2022-11-22T14:49:58;10.87;;;8.00;;
18875;SDS011;9570;50.854;13.778;2022-11-22T14:52:27;10.40;;;7.80;;
18875;SDS011;9570;50.854;13.778;2022-11-22T14:54:56;11.57;;;7.77;;
18875;SDS011;9570;50.854;13.778;2022-11-22T14:57:24;10.57;;;6.87;;
18875;SDS011;9570;50.854;13.778;2022-11-22T14:59:57;9.63;;;6.60;;
18875;SDS011;9570;50.854;13.778;2022-11-22T15:02:53;11.83;;;6.90;;
18875;SDS011;9570;50.854;13.778;2022-11-22T15:05:42;9.40;;;6.70;;
18875;SDS011;9570;50.854;13.778;2022-11-22T15:08:29;10.10;;;6.87;;
18875;SDS011;9570;50.854;13.778;2022-11-22T15:16:28;10.23;;;7.23;;
18875;SDS011;9570;50.854;13.778;2022-11-22T15:18:55;9.60;;;6.90;;
18875;SDS011;9570;50.854;13.778;2022-11-22T15:21:28;10.20;;;6.77;;
18875;SDS011;9570;50.854;13.778;2022-11-22T15:23:56;10.53;;;7.10;;
18875;SDS011;9570;50.854;13.778;2022-11-22T15:26:23;9.37;;;6.70;;
18875;SDS011;9570;50.854;13.778;2022-11-22T15:28:52;8.60;;;6.47;;
18875;SDS011;9570;50.854;13.778;2022-11-22T15:31:20;10.37;;;6.93;;
18875;SDS011;9570;50.854;13.778;2022-11-22T15:33:52;12.47;;;6.90;;
18875;SDS011;9570;50.854;13.778;2022-11-22T15:39:08;12.60;;;6.80;;
18875;SDS011;9570;50.854;13.778;2022-11-22T15:41:36;9.40;;;6.50;;
18875;SDS011;9570;50.854;13.778;2022-11-22T15:44:05;10.50;;;7.00;;
18875;SDS011;9570;50.854;13.778;2022-11-22T15:46:37;8.97;;;6.43;;
18875;SDS011;9570;50.854;13.778;2022-11-22T15:49:04;9.97;;;6.73;;
18875;SDS011;9570;50.854;13.778;2022-11-22T15:51:34;12.63;;;7.37;;
18875;SDS011;9570;50.854;13.778;2022-11-22T15:54:15;13.43;;;7.03;;
18875;SDS011;9570;50.854;13.778;2022-11-22T15:56:51;10.50;;;6.87;;
18875;SDS011;9570;50.854;13.778;2022-11-22T15:59:34;12.63;;;7.87;;
18875;SDS011;9570;50.854;13.778;2022-11-22T16:02:09;12.73;;;7.40;;
18875;SDS011;9570;50.854;13.778;2022-11-22T16:04:44;10.70;;;7.50;;
18875;SDS011;9570;50.854;13.778;2022-11-22T16:07:33;10.73;;;7.13;;
18875;SDS011;9570;50.854;13.778;2022-11-22T16:10:25;10.00;;;6.80;;
18875;SDS011;9570;50.854;13.778;2022-11-22T16:13:08;9.53;;;6.57;;
18875;SDS011;9570;50.854;13.778;2022-11-22T16:15:43;11.33;;;6.70;;
18875;SDS011;9570;50.854;13.778;2022-11-22T16:18:13;9.70;;;7.27;;
18875;SDS011;9570;50.854;13.778;2022-11-22T16:20:57;11.63;;;7.03;;
18875;SDS011;9570;50.854;13.778;2022-11-22T16:23:35;11.30;;;7.33;;
18875;SDS011;9570;50.854;13.778;2022-11-22T16:26:19;11.60;;;7.47;;
18875;SDS011;9570;50.854;13.778;2022-11-22T16:28:48;10.33;;;6.97;;
18875;SDS011;9570;50.854;13.778;2022-11-22T16:33:54;11.47;;;7.07;;
18875;SDS011;9570;50.854;13.778;2022-11-22T16:36:21;11.53;;;6.67;;
18875;SDS011;9570;50.854;13.778;2022-11-22T16:38:48;12.93;;;6.90;;
18875;SDS011;9570;50.854;13.778;2022-11-22T16:41:18;10.67;;;7.10;;
18875;SDS011;9570;50.854;13.778;2022-11-22T16:43:48;9.50;;;6.63;;
18875;SDS011;9570;50.854;13.778;2022-11-22T16:46:17;11.10;;;7.47;;
18875;SDS011;9570;50.854;13.778;2022-11-22T16:48:44;11.97;;;6.33;;